チタ の空港の天気 - METARとTAF

チタ・カダラ空港 ( UIAA / HTA ) - ロシア チタ
飛行場実況気象(Metar)
観測時間04/21 23:30 YAKT (04/21 14:30 UTC)
風向・風速北 3m/s
視程10km以上
天気現象
なし
気温6℃
湿度21%
気圧1003hPa
METARUIAA 211430Z AUTO 01003MPS 9999 NCD 06/M15 Q1003 RMK QFE694/0925
過去の天気等 Google飛行場航空写真 Wunderground天気予報

過去48時間のMETAR

飛行場予報(TAF)
発表時間: 4/21 23:00 YAKT (4/21 14:00 UTC)
予報対象時間: 22日0時 YAKT ~ 23日0時 YAKT
風向・風速東 3m/s 瞬間風速 8m/s
視程10km以上
全天の4割程度の積乱雲 雲底高度 1220m
22日3時 YAKT ~ 22日12時 YAKT に一時的に
視程3100m
天気現象弱いしゅう雪雨
全天の8割程度の積乱雲 雲底高度 430m
22日12時 YAKT から
風向・風速北西 7m/s 瞬間風速 12m/s
視程10km以上
全天の4割程度の積乱雲 雲底高度 1010m
22日12時 YAKT ~ 22日21時 YAKT に一時的に
風向・風速西北西 12m/s 瞬間風速 18m/s
視程3100m
天気現象弱いしゅう雪雨
全天の8割程度の積乱雲 雲底高度 430m
TAF UIAA 211400Z 2115/2215 10003G08MPS 9999 SCT040CB
TEMPO 2118/2203 3100 -SHSNRA BKN014CB
FM220300 31007G12MPS 9999 SCT033CB
TEMPO 2203/2212 30012G18MPS 3100 -SHSNRA BKN014CB